createdAt,value
2019-05-16T00:00:52.957Z,0.00
2019-05-16T00:01:52.919Z,0.00
2019-05-16T00:02:52.899Z,0.00
2019-05-16T00:03:52.916Z,0.00
2019-05-16T00:04:52.883Z,0.00
2019-05-16T00:05:54.498Z,0.00
2019-05-16T00:06:52.876Z,0.00
2019-05-16T00:07:52.848Z,0.00
2019-05-16T00:08:52.859Z,0.00
2019-05-16T00:09:52.818Z,0.00
2019-05-16T00:10:52.809Z,0.00
2019-05-16T00:11:52.816Z,0.00
2019-05-16T00:12:52.801Z,0.00
2019-05-16T00:13:52.808Z,0.00
2019-05-16T00:14:52.769Z,0.00
2019-05-16T00:15:52.757Z,0.00
2019-05-16T00:16:52.784Z,0.00
2019-05-16T00:17:52.753Z,0.00
2019-05-16T00:18:52.779Z,0.00
2019-05-16T00:19:52.724Z,0.00
2019-05-16T00:20:52.704Z,0.00
2019-05-16T00:21:52.709Z,0.00
2019-05-16T00:22:52.692Z,0.00
2019-05-16T00:23:52.672Z,0.00
2019-05-16T00:24:52.667Z,0.00
2019-05-16T00:25:52.663Z,0.00
2019-05-16T00:26:52.682Z,0.00
2019-05-16T00:27:52.623Z,0.00
2019-05-16T00:28:52.621Z,0.00
2019-05-16T00:29:52.650Z,0.00
2019-05-16T00:30:52.610Z,0.00
2019-05-16T00:31:52.620Z,0.00
2019-05-16T00:32:52.588Z,0.00
2019-05-16T00:33:52.560Z,0.00
2019-05-16T00:34:52.550Z,0.00
2019-05-16T00:36:02.600Z,0.00
2019-05-16T00:36:53.558Z,0.00
2019-05-16T00:37:52.528Z,0.00
2019-05-16T00:38:52.520Z,0.00
2019-05-16T00:39:52.520Z,0.00
2019-05-16T00:40:52.486Z,0.00
2019-05-16T00:41:52.488Z,0.00
2019-05-16T00:42:52.494Z,0.00
2019-05-16T00:43:52.460Z,0.00
2019-05-16T00:44:52.460Z,0.00
2019-05-16T00:45:52.492Z,0.00
2019-05-16T00:46:52.482Z,0.00
2019-05-16T00:47:52.412Z,0.00
2019-05-16T00:48:52.402Z,0.00
2019-05-16T00:50:00.748Z,0.00
2019-05-16T00:50:52.399Z,0.00
2019-05-16T00:51:52.428Z,0.00
2019-05-16T00:52:52.438Z,0.00
2019-05-16T00:53:52.407Z,0.00
2019-05-16T00:54:52.350Z,0.00
2019-05-16T00:55:52.362Z,0.00
2019-05-16T00:56:52.355Z,0.00
2019-05-16T00:57:52.318Z,0.00
2019-05-16T00:58:52.343Z,0.00
2019-05-16T00:59:52.405Z,0.00
2019-05-16T01:00:52.332Z,0.00
2019-05-16T01:01:52.307Z,0.00
2019-05-16T01:02:52.265Z,0.00
2019-05-16T01:03:52.430Z,0.00
2019-05-16T01:04:52.254Z,0.00
2019-05-16T01:05:52.222Z,0.00
2019-05-16T01:06:52.267Z,0.00
2019-05-16T01:07:52.255Z,0.00
2019-05-16T01:08:52.268Z,0.00
2019-05-16T01:09:52.362Z,0.00
2019-05-16T01:10:52.392Z,0.00
2019-05-16T01:11:52.216Z,0.00
2019-05-16T01:12:52.202Z,0.00
2019-05-16T01:13:52.181Z,0.00
2019-05-16T01:14:52.128Z,0.00
2019-05-16T01:15:52.147Z,0.00
2019-05-16T01:16:52.149Z,0.00
2019-05-16T01:17:52.135Z,0.00
2019-05-16T01:18:52.114Z,0.00
2019-05-16T01:19:52.221Z,0.00
2019-05-16T01:20:52.109Z,0.00
2019-05-16T01:21:52.130Z,0.00
2019-05-16T01:22:52.110Z,0.00
2019-05-16T01:23:52.066Z,0.00
2019-05-16T01:24:52.053Z,0.00
2019-05-16T01:25:52.095Z,0.00
2019-05-16T01:26:52.030Z,0.00
2019-05-16T01:27:52.053Z,0.00
2019-05-16T01:28:52.071Z,0.00
2019-05-16T01:29:52.025Z,0.00
2019-05-16T01:30:51.995Z,0.00
2019-05-16T01:31:52.087Z,0.00
2019-05-16T01:32:51.991Z,0.00
2019-05-16T01:33:51.995Z,0.00
2019-05-16T01:34:51.983Z,0.00
2019-05-16T01:35:51.941Z,0.00
2019-05-16T01:36:51.993Z,0.00
2019-05-16T01:37:51.943Z,0.00
2019-05-16T01:38:51.946Z,0.00
2019-05-16T01:39:51.891Z,0.00
2019-05-16T01:40:51.913Z,0.00
2019-05-16T01:41:51.891Z,0.00
2019-05-16T01:42:51.839Z,0.00
2019-05-16T01:43:51.855Z,0.00
2019-05-16T01:44:51.879Z,0.00
2019-05-16T01:45:51.833Z,0.00
2019-05-16T01:46:51.869Z,0.00
2019-05-16T01:47:51.871Z,0.00
2019-05-16T01:48:51.817Z,0.00
2019-05-16T01:49:51.829Z,0.00
2019-05-16T01:50:51.805Z,0.00
2019-05-16T01:51:51.795Z,0.00
2019-05-16T01:52:51.797Z,0.00
2019-05-16T01:53:51.759Z,0.00
2019-05-16T01:54:51.758Z,0.00
2019-05-16T01:55:51.698Z,0.00
2019-05-16T01:56:51.769Z,0.00
2019-05-16T01:57:51.747Z,0.00
2019-05-16T01:58:51.701Z,0.00
2019-05-16T01:59:51.696Z,0.00
2019-05-16T02:01:01.987Z,0.00
2019-05-16T02:01:52.649Z,0.00
2019-05-16T02:02:51.627Z,0.00
2019-05-16T02:03:51.665Z,0.00
2019-05-16T02:04:51.593Z,0.00
2019-05-16T02:05:51.613Z,0.00
2019-05-16T02:06:54.834Z,0.00
2019-05-16T02:07:51.693Z,0.00
2019-05-16T02:08:51.605Z,0.00
2019-05-16T02:09:51.612Z,0.00
2019-05-16T02:10:51.593Z,0.00
2019-05-16T02:11:51.542Z,0.00
2019-05-16T02:12:51.519Z,0.00
2019-05-16T02:13:51.639Z,0.00
2019-05-16T02:14:51.532Z,0.00
2019-05-16T02:15:51.531Z,0.00
2019-05-16T02:16:51.586Z,0.00
2019-05-16T02:17:51.491Z,0.00
2019-05-16T02:18:51.678Z,0.00
2019-05-16T02:19:51.673Z,0.00
2019-05-16T02:20:51.549Z,0.00
2019-05-16T02:21:51.568Z,0.00
2019-05-16T02:22:51.526Z,0.00
2019-05-16T02:23:51.731Z,0.00
2019-05-16T02:24:51.515Z,0.00
2019-05-16T02:25:51.696Z,0.00
2019-05-16T02:26:52.356Z,0.00
2019-05-16T02:27:51.345Z,0.00
2019-05-16T02:28:51.380Z,0.00
2019-05-16T02:29:51.349Z,0.00
2019-05-16T02:30:51.922Z,0.00
2019-05-16T02:31:51.582Z,0.00
2019-05-16T02:32:52.338Z,0.00
2019-05-16T02:33:51.430Z,0.00
2019-05-16T02:34:51.512Z,0.00
2019-05-16T02:35:55.366Z,0.00
2019-05-16T02:37:10.364Z,0.00
2019-05-16T02:37:55.173Z,0.00
2019-05-16T02:38:55.447Z,0.00
2019-05-16T02:39:54.448Z,0.00
2019-05-16T02:40:55.148Z,0.00
2019-05-16T02:41:52.026Z,0.00
2019-05-16T02:42:51.621Z,0.00
2019-05-16T02:43:51.205Z,0.00
2019-05-16T02:44:51.385Z,0.00
2019-05-16T02:45:51.961Z,0.00
2019-05-16T02:46:51.192Z,0.00
2019-05-16T02:47:51.460Z,0.00
2019-05-16T02:48:51.879Z,4.00
2019-05-16T02:49:51.173Z,4.00
2019-05-16T02:50:51.666Z,4.00
2019-05-16T02:51:51.363Z,0.00
2019-05-16T02:52:51.930Z,4.00
2019-05-16T02:53:51.370Z,4.00
2019-05-16T02:54:53.631Z,8.00
2019-05-16T02:55:51.796Z,4.00
2019-05-16T02:56:51.173Z,8.00
2019-05-16T02:57:51.233Z,4.00
2019-05-16T02:58:52.050Z,8.00
2019-05-16T02:59:51.239Z,8.00
2019-05-16T03:00:51.559Z,12.00
2019-05-16T03:01:52.185Z,16.00
2019-05-16T03:02:51.077Z,16.00
2019-05-16T03:03:51.706Z,20.00
2019-05-16T03:04:51.937Z,20.00
2019-05-16T03:05:51.253Z,24.00
2019-05-16T03:06:51.361Z,28.00
2019-05-16T03:07:52.063Z,28.00
2019-05-16T03:08:50.968Z,32.00
2019-05-16T03:09:51.509Z,36.00
2019-05-16T03:10:51.988Z,44.00
2019-05-16T03:11:51.062Z,48.00
2019-05-16T03:12:51.402Z,56.00
2019-05-16T03:13:51.443Z,64.00
2019-05-16T03:14:54.493Z,72.00
2019-05-16T03:15:51.106Z,80.00
2019-05-16T03:16:50.834Z,88.00
2019-05-16T03:17:50.954Z,96.00
2019-05-16T03:18:51.647Z,108.00
2019-05-16T03:19:51.191Z,120.00
2019-05-16T03:20:51.177Z,132.00
2019-05-16T03:21:51.005Z,148.00
2019-05-16T03:22:52.001Z,164.00
2019-05-16T03:23:50.891Z,184.00
2019-05-16T03:24:51.563Z,208.00
2019-05-16T03:25:50.917Z,232.00
2019-05-16T03:26:51.447Z,252.00
2019-05-16T03:27:51.315Z,272.00
2019-05-16T03:28:52.090Z,292.00
2019-05-16T03:29:50.831Z,316.00
2019-05-16T03:30:54.767Z,332.00
2019-05-16T03:31:54.171Z,356.00
2019-05-16T03:32:54.770Z,376.00
2019-05-16T03:33:58.876Z,404.00
2019-05-16T03:34:54.708Z,436.00
2019-05-16T03:35:54.442Z,480.00
2019-05-16T03:36:54.505Z,524.00
2019-05-16T03:37:57.051Z,576.00
2019-05-16T03:38:51.676Z,620.00
2019-05-16T03:39:51.407Z,664.00
2019-05-16T03:40:51.198Z,704.00
2019-05-16T03:41:50.759Z,740.00
2019-05-16T03:42:51.812Z,772.00
2019-05-16T03:43:50.901Z,808.00
2019-05-16T03:44:51.246Z,856.00
2019-05-16T03:45:52.128Z,904.00
2019-05-16T03:46:51.823Z,952.00
2019-05-16T03:47:51.274Z,996.00
2019-05-16T03:48:52.000Z,1040.00
2019-05-16T03:49:51.803Z,1088.00
2019-05-16T03:50:51.042Z,1160.00
2019-05-16T03:51:50.669Z,1232.00
2019-05-16T03:52:50.969Z,1312.00
2019-05-16T03:53:50.806Z,1356.00
2019-05-16T03:54:50.803Z,1352.00
2019-05-16T03:55:51.740Z,1312.00
2019-05-16T03:56:51.379Z,1248.00
2019-05-16T03:57:51.596Z,1168.00
2019-05-16T03:58:51.016Z,1072.00
2019-05-16T03:59:51.790Z,992.00
2019-05-16T04:00:52.180Z,944.00
2019-05-16T04:01:51.112Z,928.00
2019-05-16T04:02:52.262Z,932.00
2019-05-16T04:03:51.330Z,940.00
2019-05-16T04:04:51.057Z,988.00
2019-05-16T04:05:52.681Z,1072.00
2019-05-16T04:06:50.758Z,1136.00
2019-05-16T04:07:53.035Z,1180.00
2019-05-16T04:08:51.349Z,1240.00
2019-05-16T04:09:50.765Z,1300.00
2019-05-16T04:10:52.134Z,1340.00
2019-05-16T04:11:51.024Z,1388.00
2019-05-16T04:12:51.358Z,1428.00
2019-05-16T04:13:50.877Z,1428.00
2019-05-16T04:14:51.230Z,1424.00
2019-05-16T04:15:52.536Z,1416.00
2019-05-16T04:16:51.032Z,1408.00
2019-05-16T04:17:51.230Z,1392.00
2019-05-16T04:18:51.439Z,1372.00
2019-05-16T04:19:51.016Z,1356.00
2019-05-16T04:20:52.273Z,1348.00
2019-05-16T04:21:51.150Z,1348.00
2019-05-16T04:22:51.296Z,1368.00
2019-05-16T04:23:50.680Z,1380.00
2019-05-16T04:24:51.254Z,1372.00
2019-05-16T04:25:52.212Z,1348.00
2019-05-16T04:26:51.656Z,1344.00
2019-05-16T04:27:50.306Z,1400.00
2019-05-16T04:28:51.385Z,1452.00
2019-05-16T04:29:51.360Z,1492.00
2019-05-16T04:30:50.882Z,1540.00
2019-05-16T04:31:50.841Z,1608.00
2019-05-16T04:32:51.036Z,1660.00
2019-05-16T04:33:51.601Z,1716.00
2019-05-16T04:34:51.097Z,1820.00
2019-05-16T04:35:52.513Z,1976.00
2019-05-16T04:36:51.400Z,2140.00
2019-05-16T04:37:51.297Z,2304.00
2019-05-16T04:38:51.269Z,2480.00
2019-05-16T04:39:50.665Z,2692.00
2019-05-16T04:40:51.541Z,3044.00
2019-05-16T04:41:50.872Z,3568.00
2019-05-16T04:42:51.258Z,3960.00
2019-05-16T04:43:50.706Z,3952.00
2019-05-16T04:44:51.548Z,3692.00
2019-05-16T04:45:52.179Z,3564.00
2019-05-16T04:46:50.999Z,3628.00
2019-05-16T04:47:51.205Z,3908.00
2019-05-16T04:48:50.763Z,4328.00
2019-05-16T04:49:51.850Z,4752.00
2019-05-16T04:50:51.575Z,5212.00
2019-05-16T04:51:51.667Z,5780.00
2019-05-16T04:52:51.808Z,6352.00
2019-05-16T04:53:50.982Z,6788.00
2019-05-16T04:54:51.211Z,7108.00
2019-05-16T04:55:51.705Z,7336.00
2019-05-16T04:56:51.339Z,7380.00
2019-05-16T04:57:51.181Z,7428.00
2019-05-16T04:58:51.472Z,7656.00
2019-05-16T04:59:50.843Z,7732.00
2019-05-16T05:00:51.693Z,7440.00
2019-05-16T05:01:51.146Z,7104.00
2019-05-16T05:02:51.815Z,6960.00
2019-05-16T05:04:01.858Z,7084.00
2019-05-16T05:04:51.076Z,7268.00
2019-05-16T05:05:51.261Z,7432.00
2019-05-16T05:06:51.263Z,7600.00
2019-05-16T05:07:51.161Z,7728.00
2019-05-16T05:08:57.877Z,7756.00
2019-05-16T05:09:51.374Z,7700.00
2019-05-16T05:10:51.301Z,7772.00
2019-05-16T05:11:51.903Z,7996.00
2019-05-16T05:12:51.480Z,8104.00
2019-05-16T05:13:50.584Z,8276.00
2019-05-16T05:14:51.033Z,8596.00
2019-05-16T05:15:50.972Z,8800.00
2019-05-16T05:16:50.714Z,8720.00
2019-05-16T05:17:50.292Z,8576.00
2019-05-16T05:18:51.513Z,8492.00
2019-05-16T05:19:50.672Z,8800.00
2019-05-16T05:20:52.376Z,9712.00
2019-05-16T05:21:51.385Z,11068.00
2019-05-16T05:22:50.038Z,12108.00
2019-05-16T05:23:50.824Z,12420.00
2019-05-16T05:24:50.752Z,12600.00
2019-05-16T05:25:51.472Z,12936.00
2019-05-16T05:26:50.373Z,13480.00
2019-05-16T05:27:50.095Z,13892.00
2019-05-16T05:28:50.831Z,13708.00
2019-05-16T05:29:50.286Z,13216.00
2019-05-16T05:30:50.342Z,12584.00
2019-05-16T05:31:54.872Z,11932.00
2019-05-16T05:32:50.455Z,11284.00
2019-05-16T05:33:50.678Z,10792.00
2019-05-16T05:34:50.385Z,10880.00
2019-05-16T05:35:50.782Z,11760.00
2019-05-16T05:36:51.190Z,12784.00
2019-05-16T05:37:50.794Z,13752.00
2019-05-16T05:39:06.210Z,14728.00
2019-05-16T05:39:50.550Z,15148.00
2019-05-16T05:40:51.015Z,14936.00
2019-05-16T05:41:50.430Z,14492.00
2019-05-16T05:42:50.472Z,13776.00
2019-05-16T05:43:50.360Z,13088.00
2019-05-16T05:44:50.805Z,12456.00
2019-05-16T05:45:51.166Z,11564.00
2019-05-16T05:46:51.139Z,10616.00
2019-05-16T05:47:50.490Z,10480.00
2019-05-16T05:48:50.486Z,10728.00
2019-05-16T05:49:49.852Z,10784.00
2019-05-16T05:50:50.854Z,10640.00
2019-05-16T05:51:50.066Z,10524.00
2019-05-16T05:52:51.111Z,10444.00
2019-05-16T05:53:50.975Z,10396.00
2019-05-16T05:54:50.256Z,10392.00
2019-05-16T05:55:51.007Z,10296.00
2019-05-16T05:56:50.111Z,10192.00
2019-05-16T05:57:50.692Z,10288.00
2019-05-16T05:58:51.248Z,10268.00
2019-05-16T05:59:49.806Z,10412.00
2019-05-16T06:00:52.022Z,10588.00
2019-05-16T06:01:51.625Z,11140.00
2019-05-16T06:02:50.772Z,12020.00
2019-05-16T06:03:50.553Z,12820.00
2019-05-16T06:04:50.191Z,13464.00
2019-05-16T06:05:50.496Z,14008.00
2019-05-16T06:06:50.388Z,14628.00
2019-05-16T06:07:50.972Z,15412.00
2019-05-16T06:08:50.213Z,16084.00
2019-05-16T06:09:55.601Z,16480.00
2019-05-16T06:10:50.595Z,16704.00
2019-05-16T06:11:50.151Z,17184.00
2019-05-16T06:12:50.074Z,18112.00
2019-05-16T06:13:49.995Z,18688.00
2019-05-16T06:14:50.439Z,18816.00
2019-05-16T06:15:51.052Z,18944.00
2019-05-16T06:16:50.841Z,18976.00
2019-05-16T06:17:50.889Z,18848.00
2019-05-16T06:18:50.289Z,18784.00
2019-05-16T06:19:49.787Z,18784.00
2019-05-16T06:20:51.331Z,19296.00
2019-05-16T06:21:50.336Z,19648.00
2019-05-16T06:22:50.922Z,19168.00
2019-05-16T06:23:50.862Z,18656.00
2019-05-16T06:24:50.446Z,18720.00
2019-05-16T06:25:50.484Z,18720.00
2019-05-16T06:26:50.465Z,18432.00
2019-05-16T06:27:51.095Z,18016.00
2019-05-16T06:28:50.519Z,17920.00
2019-05-16T06:29:49.698Z,17888.00
2019-05-16T06:30:51.422Z,17888.00
2019-05-16T06:31:49.653Z,17536.00
2019-05-16T06:32:50.199Z,17216.00
2019-05-16T06:33:50.181Z,16832.00
2019-05-16T06:34:50.644Z,15972.00
2019-05-16T06:35:51.348Z,15560.00
2019-05-16T06:36:50.884Z,15444.00
2019-05-16T06:37:49.991Z,15576.00
2019-05-16T06:38:49.830Z,15548.00
2019-05-16T06:39:50.267Z,15504.00
2019-05-16T06:40:49.969Z,15668.00
2019-05-16T06:41:50.863Z,16128.00
2019-05-16T06:42:50.875Z,16416.00
2019-05-16T06:43:50.758Z,16184.00
2019-05-16T06:44:50.368Z,15812.00
2019-05-16T06:45:51.379Z,15336.00
2019-05-16T06:46:59.781Z,14648.00
2019-05-16T06:47:50.436Z,14220.00
2019-05-16T06:48:50.553Z,13888.00
2019-05-16T06:49:50.846Z,13440.00
2019-05-16T06:50:56.394Z,13088.00
2019-05-16T06:51:48.575Z,13076.00
2019-05-16T06:52:50.223Z,13192.00
2019-05-16T06:53:50.085Z,13196.00
2019-05-16T06:54:50.426Z,13084.00
2019-05-16T06:55:49.772Z,13212.00
2019-05-16T06:56:51.004Z,13232.00
2019-05-16T06:57:50.363Z,13776.00
2019-05-16T06:58:51.808Z,14072.00
2019-05-16T06:59:49.982Z,14000.00
2019-05-16T07:00:51.659Z,13536.00
2019-05-16T07:01:50.034Z,12820.00
2019-05-16T07:02:49.899Z,12796.00
2019-05-16T07:03:50.603Z,13624.00
2019-05-16T07:04:50.439Z,14676.00
2019-05-16T07:05:50.396Z,15376.00
2019-05-16T07:06:58.707Z,15540.00
2019-05-16T07:07:50.969Z,15056.00
2019-05-16T07:08:50.758Z,14288.00
2019-05-16T07:09:58.061Z,13988.00
2019-05-16T07:10:50.899Z,13852.00
2019-05-16T07:11:50.324Z,13644.00
2019-05-16T07:12:50.422Z,13500.00
2019-05-16T07:13:51.706Z,13536.00
2019-05-16T07:14:50.345Z,13688.00
2019-05-16T07:15:50.105Z,14104.00
2019-05-16T07:16:49.679Z,14464.00
2019-05-16T07:17:50.469Z,14624.00
2019-05-16T07:18:50.386Z,14644.00
2019-05-16T07:19:50.261Z,14424.00
2019-05-16T07:20:50.742Z,13592.00
2019-05-16T07:21:56.263Z,12932.00
2019-05-16T07:22:50.332Z,13404.00
2019-05-16T07:23:50.874Z,14840.00
2019-05-16T07:25:00.396Z,17024.00
2019-05-16T07:25:50.544Z,18784.00
2019-05-16T07:26:50.010Z,18976.00
2019-05-16T07:27:51.114Z,18368.00
2019-05-16T07:28:51.278Z,18112.00
2019-05-16T07:29:50.640Z,17568.00
2019-05-16T07:30:50.701Z,16800.00
2019-05-16T07:31:52.351Z,16800.00
2019-05-16T07:32:52.292Z,16864.00
2019-05-16T07:34:05.154Z,16220.00
2019-05-16T07:36:00.361Z,14920.00
2019-05-16T07:37:00.477Z,15192.00
2019-05-16T07:38:00.608Z,16096.00
2019-05-16T07:38:59.785Z,17728.00
2019-05-16T07:40:08.463Z,19392.00
2019-05-16T07:41:00.342Z,22784.00
2019-05-16T07:41:59.951Z,26944.00
2019-05-16T07:43:00.069Z,31008.00
2019-05-16T07:44:00.953Z,34976.00
2019-05-16T07:45:00.679Z,37920.00
2019-05-16T07:46:00.464Z,36320.00
2019-05-16T07:47:01.019Z,31936.00
2019-05-16T07:48:00.101Z,27744.00
2019-05-16T07:49:01.215Z,25824.00
2019-05-16T07:49:59.614Z,25888.00
2019-05-16T07:51:00.559Z,25472.00
2019-05-16T07:52:00.578Z,24320.00
2019-05-16T07:53:00.004Z,23488.00
2019-05-16T07:53:59.747Z,23520.00
2019-05-16T07:55:00.275Z,24672.00
2019-05-16T07:56:00.112Z,25216.00
2019-05-16T07:57:11.492Z,24096.00
2019-05-16T07:58:00.196Z,21472.00
2019-05-16T07:59:00.919Z,19264.00
2019-05-16T08:00:00.197Z,19872.00
2019-05-16T08:01:04.440Z,22784.00
2019-05-16T08:02:00.650Z,23680.00
2019-05-16T08:02:59.985Z,22816.00
2019-05-16T08:04:00.026Z,20640.00
2019-05-16T08:05:00.772Z,18432.00
2019-05-16T08:06:01.770Z,17888.00
2019-05-16T08:07:00.626Z,19616.00
2019-05-16T08:08:00.020Z,22432.00
2019-05-16T08:09:00.227Z,22304.00
2019-05-16T08:09:59.845Z,20352.00
2019-05-16T08:11:01.523Z,18176.00
2019-05-16T08:12:01.604Z,17472.00
2019-05-16T08:13:03.420Z,18368.00
2019-05-16T08:14:01.022Z,17856.00
2019-05-16T08:15:00.769Z,17216.00
2019-05-16T08:16:01.159Z,17056.00
2019-05-16T08:17:01.097Z,16400.00
2019-05-16T08:18:03.145Z,15876.00
2019-05-16T08:19:00.938Z,15496.00
2019-05-16T08:20:00.143Z,15796.00
2019-05-16T08:21:00.965Z,15620.00
2019-05-16T08:22:01.348Z,14852.00
2019-05-16T08:23:00.828Z,14636.00
2019-05-16T08:24:05.842Z,14332.00
2019-05-16T08:25:00.309Z,13628.00
2019-05-16T08:27:01.169Z,15544.00
2019-05-16T08:28:01.193Z,16864.00
2019-05-16T08:29:02.055Z,16704.00
2019-05-16T08:30:02.114Z,15488.00
2019-05-16T08:31:00.865Z,14148.00
2019-05-16T08:32:02.091Z,13420.00
2019-05-16T08:33:02.401Z,14844.00
2019-05-16T08:34:00.887Z,16148.00
2019-05-16T08:35:00.994Z,15936.00
2019-05-16T08:36:02.940Z,16204.00
2019-05-16T08:37:01.191Z,17696.00
2019-05-16T08:38:01.076Z,19456.00
2019-05-16T08:39:01.093Z,19328.00
2019-05-16T08:40:00.379Z,17344.00
2019-05-16T08:41:08.013Z,15912.00
2019-05-16T08:42:07.812Z,15872.00
2019-05-16T08:43:00.414Z,15968.00
2019-05-16T08:44:01.119Z,14448.00
2019-05-16T08:45:01.855Z,12408.00
2019-05-16T08:46:01.055Z,11984.00
2019-05-16T08:47:05.631Z,12140.00
2019-05-16T08:48:00.295Z,10836.00
2019-05-16T08:49:01.110Z,10920.00
2019-05-16T08:50:00.646Z,11672.00
2019-05-16T08:50:05.207Z,14104.00
2019-05-16T08:52:01.435Z,12444.00
2019-05-16T08:53:02.574Z,14136.00
2019-05-16T08:54:01.570Z,14532.00
2019-05-16T08:55:03.102Z,14832.00
2019-05-16T08:56:02.625Z,16072.00
2019-05-16T08:57:16.306Z,17856.00
2019-05-16T08:58:02.541Z,18080.00
2019-05-16T08:59:01.803Z,17504.00
2019-05-16T09:00:01.321Z,17408.00
2019-05-16T09:01:02.283Z,18432.00
2019-05-16T09:02:03.311Z,19744.00
2019-05-16T09:03:01.776Z,21536.00
2019-05-16T09:04:01.515Z,22400.00
2019-05-16T09:05:04.404Z,21024.00
2019-05-16T09:06:02.987Z,19456.00
2019-05-16T09:07:01.962Z,17632.00
2019-05-16T09:09:10.218Z,16272.00
2019-05-16T09:10:00.397Z,15436.00
2019-05-16T09:10:30.561Z,11264.00
2019-05-16T09:10:41.078Z,16864.00
2019-05-16T09:11:02.094Z,16440.00
2019-05-16T09:11:59.354Z,18784.00
2019-05-16T09:12:58.401Z,20224.00
2019-05-16T09:13:58.381Z,20480.00
2019-05-16T09:14:59.551Z,21280.00
2019-05-16T09:15:58.335Z,21728.00
2019-05-16T09:16:58.328Z,21152.00
2019-05-16T09:17:58.327Z,19616.00
2019-05-16T09:18:58.304Z,19456.00
2019-05-16T09:19:58.302Z,20512.00
2019-05-16T09:20:58.300Z,21472.00
2019-05-16T09:21:58.252Z,21216.00
2019-05-16T09:22:58.259Z,20992.00
2019-05-16T09:23:58.241Z,22080.00
2019-05-16T09:24:58.235Z,23840.00
2019-05-16T09:25:58.624Z,25120.00
2019-05-16T09:26:58.200Z,27328.00
2019-05-16T09:27:58.211Z,29376.00
2019-05-16T09:28:58.183Z,31328.00
2019-05-16T09:29:58.176Z,31264.00
2019-05-16T09:30:58.181Z,29824.00
2019-05-16T09:32:09.105Z,29408.00
2019-05-16T09:32:59.130Z,31232.00
2019-05-16T09:33:58.137Z,35040.00
2019-05-16T09:34:58.128Z,35456.00
2019-05-16T09:35:58.114Z,34784.00
2019-05-16T09:37:01.563Z,41344.00
2019-05-16T09:37:58.099Z,41184.00
2019-05-16T09:38:58.107Z,38048.00
2019-05-16T09:39:58.056Z,38656.00
2019-05-16T09:40:58.059Z,40416.00
2019-05-16T09:41:58.695Z,41952.00
2019-05-16T09:43:07.646Z,43648.00
2019-05-16T09:43:58.905Z,43008.00
2019-05-16T09:44:58.148Z,42560.00
2019-05-16T09:46:03.696Z,43360.00
2019-05-16T09:46:58.987Z,46016.00
2019-05-16T09:47:58.085Z,43744.00
2019-05-16T09:49:15.782Z,41120.00
2019-05-16T09:49:58.949Z,39168.00
2019-05-16T09:50:58.027Z,37440.00
2019-05-16T09:51:57.930Z,34464.00
2019-05-16T09:52:57.915Z,33440.00
2019-05-16T09:53:57.916Z,31872.00
2019-05-16T09:54:57.984Z,29568.00
2019-05-16T09:55:57.895Z,29280.00
2019-05-16T09:56:57.876Z,28736.00
2019-05-16T09:57:58.555Z,25376.00
2019-05-16T09:58:57.871Z,21856.00
2019-05-16T09:59:57.863Z,19264.00
2019-05-16T10:00:57.860Z,17920.00
2019-05-16T10:01:57.834Z,18048.00
2019-05-16T10:02:58.106Z,17120.00
2019-05-16T10:04:06.675Z,15460.00
2019-05-16T10:04:58.210Z,16072.00
2019-05-16T10:05:57.803Z,17632.00
2019-05-16T10:06:57.759Z,17280.00
2019-05-16T10:07:57.752Z,16928.00
2019-05-16T10:08:57.749Z,17856.00
2019-05-16T10:09:57.730Z,19456.00
2019-05-16T10:10:57.721Z,20384.00
2019-05-16T10:12:08.149Z,20256.00
2019-05-16T10:12:58.689Z,20960.00
2019-05-16T10:13:57.699Z,22016.00
2019-05-16T10:14:59.677Z,22304.00
2019-05-16T10:15:57.673Z,24320.00
2019-05-16T10:16:57.975Z,25312.00
2019-05-16T10:17:57.714Z,25216.00
2019-05-16T10:18:57.701Z,24160.00
2019-05-16T10:20:00.105Z,22976.00
2019-05-16T10:20:59.377Z,22720.00
2019-05-16T10:22:00.159Z,24320.00
2019-05-16T10:22:58.081Z,25632.00
2019-05-16T10:23:57.599Z,26432.00
2019-05-16T10:24:57.754Z,26112.00
